createdAt,value
2018-07-08T00:01:00.789Z,0
2018-07-08T00:02:09.711Z,0
2018-07-08T00:03:18.345Z,0
2018-07-08T00:04:26.993Z,0
2018-07-08T00:05:35.635Z,0
2018-07-08T00:06:44.287Z,0
2018-07-08T00:07:52.923Z,0
2018-07-08T00:09:01.572Z,0
2018-07-08T00:10:10.216Z,0
2018-07-08T00:11:18.870Z,0
2018-07-08T00:12:27.776Z,0
2018-07-08T00:13:36.422Z,0
2018-07-08T00:14:45.062Z,0
2018-07-08T00:15:53.699Z,0
2018-07-08T00:17:02.355Z,0
2018-07-08T00:18:10.995Z,0
2018-07-08T00:19:19.647Z,0
2018-07-08T00:20:28.283Z,0
2018-07-08T00:21:36.937Z,0
2018-07-08T00:22:45.578Z,0
2018-07-08T00:23:54.227Z,0
2018-07-08T00:25:02.865Z,0
2018-07-08T00:26:11.784Z,0
2018-07-08T00:27:20.428Z,0
2018-07-08T00:28:29.076Z,0
2018-07-08T00:29:37.713Z,0
2018-07-08T00:30:46.629Z,0
2018-07-08T00:31:55.278Z,0
2018-07-08T00:33:03.922Z,0
2018-07-08T00:34:12.566Z,0
2018-07-08T00:35:22.014Z,0
2018-07-08T00:36:30.653Z,0
2018-07-08T00:37:39.304Z,0
2018-07-08T00:38:47.938Z,0
2018-07-08T00:39:56.670Z,0
2018-07-08T00:41:05.679Z,0
2018-07-08T00:42:14.327Z,0
2018-07-08T00:43:22.963Z,0
2018-07-08T00:44:31.617Z,0
2018-07-08T00:45:40.257Z,0
2018-07-08T00:46:48.904Z,0
2018-07-08T00:47:57.537Z,0
2018-07-08T00:49:06.185Z,0
2018-07-08T00:50:14.826Z,0
2018-07-08T00:51:23.473Z,0
2018-07-08T00:52:32.120Z,0
2018-07-08T00:53:41.018Z,0
2018-07-08T00:54:49.936Z,0
2018-07-08T00:55:58.575Z,0
2018-07-08T00:57:07.229Z,0
2018-07-08T00:58:16.125Z,0
2018-07-08T00:59:24.773Z,0
2018-07-08T01:00:33.413Z,0
2018-07-08T01:01:42.357Z,0
2018-07-08T01:02:50.966Z,0
2018-07-08T01:03:59.611Z,0
2018-07-08T01:05:08.253Z,0
2018-07-08T01:06:16.906Z,0
2018-07-08T01:07:25.548Z,0
2018-07-08T01:08:34.186Z,0
2018-07-08T01:09:42.830Z,0
2018-07-08T01:10:51.472Z,0
2018-07-08T01:12:00.126Z,0
2018-07-08T01:13:08.765Z,0
2018-07-08T01:14:17.678Z,0
2018-07-08T01:15:26.314Z,0
2018-07-08T01:16:34.967Z,0
2018-07-08T01:17:43.606Z,0
2018-07-08T01:18:52.253Z,0
2018-07-08T01:20:01.153Z,0
2018-07-08T01:21:10.341Z,0
2018-07-08T01:22:18.982Z,0
2018-07-08T01:23:27.629Z,0
2018-07-08T01:24:36.262Z,0
2018-07-08T01:25:44.907Z,0
2018-07-08T01:26:53.555Z,0
2018-07-08T01:28:02.725Z,0
2018-07-08T01:29:11.637Z,0
2018-07-08T01:30:20.272Z,0
2018-07-08T01:31:28.920Z,0
2018-07-08T01:32:37.566Z,0
2018-07-08T01:33:46.214Z,0
2018-07-08T01:34:55.118Z,0
2018-07-08T01:36:03.761Z,0
2018-07-08T01:37:12.407Z,0
2018-07-08T01:38:21.053Z,0
2018-07-08T01:39:29.691Z,0
2018-07-08T01:40:38.334Z,0
2018-07-08T01:41:47.239Z,0
2018-07-08T01:42:55.884Z,0
2018-07-08T01:44:04.788Z,0
2018-07-08T01:45:13.432Z,0
2018-07-08T01:46:22.073Z,0
2018-07-08T01:47:30.713Z,0
2018-07-08T01:48:39.362Z,0
2018-07-08T01:49:48.534Z,0
2018-07-08T01:50:57.176Z,0
2018-07-08T01:52:05.813Z,0
2018-07-08T01:53:14.467Z,0
2018-07-08T01:54:23.108Z,0
2018-07-08T01:55:32.019Z,0
2018-07-08T01:56:40.656Z,0
2018-07-08T01:57:49.569Z,0
2018-07-08T01:58:58.214Z,0
2018-07-08T02:00:06.853Z,0
2018-07-08T02:01:15.488Z,0
2018-07-08T02:02:24.138Z,0
2018-07-08T02:03:32.784Z,0
2018-07-08T02:04:41.427Z,0
2018-07-08T02:05:50.076Z,0
2018-07-08T02:06:58.742Z,0
2018-07-08T02:08:07.672Z,0
2018-07-08T02:09:16.315Z,0
2018-07-08T02:10:24.962Z,0
2018-07-08T02:11:33.599Z,0
2018-07-08T02:12:42.244Z,0
2018-07-08T02:13:50.888Z,0
2018-07-08T02:14:59.807Z,0
2018-07-08T02:16:08.713Z,0
2018-07-08T02:17:17.359Z,0
2018-07-08T02:18:26.002Z,0
2018-07-08T02:19:34.645Z,0
2018-07-08T02:20:43.290Z,0
2018-07-08T02:21:51.939Z,0
2018-07-08T02:23:00.617Z,0
2018-07-08T02:24:09.219Z,0
2018-07-08T02:25:17.866Z,0
2018-07-08T02:26:26.510Z,0
2018-07-08T02:27:35.153Z,0
2018-07-08T02:28:43.791Z,0
2018-07-08T02:29:52.437Z,0
2018-07-08T02:31:01.091Z,0
2018-07-08T02:32:09.735Z,0
2018-07-08T02:33:18.373Z,0
2018-07-08T02:34:27.290Z,0
2018-07-08T02:35:36.197Z,0
2018-07-08T02:36:45.113Z,4
2018-07-08T02:37:54.018Z,0
2018-07-08T02:39:02.664Z,0
2018-07-08T02:40:11.582Z,4
2018-07-08T02:41:20.222Z,4
2018-07-08T02:42:28.867Z,0
2018-07-08T02:43:37.507Z,4
2018-07-08T02:44:46.159Z,4
2018-07-08T02:45:54.803Z,4
2018-07-08T02:47:03.457Z,8
2018-07-08T02:48:12.098Z,4
2018-07-08T02:49:20.743Z,4
2018-07-08T02:50:29.391Z,4
2018-07-08T02:51:38.046Z,12
2018-07-08T02:52:46.684Z,8
2018-07-08T02:53:55.332Z,12
2018-07-08T02:55:03.972Z,12
2018-07-08T02:56:12.624Z,16
2018-07-08T02:57:21.267Z,20
2018-07-08T02:58:30.450Z,20
2018-07-08T02:59:39.090Z,24
2018-07-08T03:00:47.732Z,24
2018-07-08T03:01:56.386Z,28
2018-07-08T03:03:05.295Z,32
2018-07-08T03:04:13.940Z,36
2018-07-08T03:05:22.864Z,40
2018-07-08T03:06:31.772Z,44
2018-07-08T03:07:40.408Z,52
2018-07-08T03:08:49.056Z,56
2018-07-08T03:09:58.225Z,60
2018-07-08T03:11:06.879Z,72
2018-07-08T03:12:15.522Z,76
2018-07-08T03:13:24.172Z,84
2018-07-08T03:14:33.072Z,88
2018-07-08T03:15:41.994Z,96
2018-07-08T03:16:50.959Z,104
2018-07-08T03:17:59.606Z,112
2018-07-08T03:19:08.334Z,120
2018-07-08T03:20:16.895Z,132
2018-07-08T03:21:25.540Z,144
2018-07-08T03:22:34.718Z,160
2018-07-08T03:23:43.637Z,172
2018-07-08T03:24:52.553Z,184
2018-07-08T03:26:01.459Z,204
2018-07-08T03:27:10.105Z,220
2018-07-08T03:28:19.015Z,236
2018-07-08T03:29:27.649Z,256
2018-07-08T03:30:36.306Z,272
2018-07-08T03:31:45.486Z,292
2018-07-08T03:32:54.406Z,308
2018-07-08T03:34:03.048Z,328
2018-07-08T03:35:11.689Z,348
2018-07-08T03:36:20.329Z,368
2018-07-08T03:37:28.970Z,388
2018-07-08T03:38:37.623Z,408
2018-07-08T03:39:46.263Z,428
2018-07-08T03:40:54.911Z,452
2018-07-08T03:42:04.086Z,472
2018-07-08T03:43:12.737Z,496
2018-07-08T03:44:21.636Z,520
2018-07-08T03:45:30.285Z,540
2018-07-08T03:46:38.922Z,564
2018-07-08T03:47:47.572Z,584
2018-07-08T03:48:56.478Z,608
2018-07-08T03:50:05.121Z,628
2018-07-08T03:51:13.755Z,652
2018-07-08T03:52:22.398Z,672
2018-07-08T03:53:31.046Z,692
2018-07-08T03:54:39.690Z,712
2018-07-08T03:55:48.340Z,732
2018-07-08T03:56:56.982Z,752
2018-07-08T03:58:05.622Z,776
2018-07-08T03:59:14.260Z,796
2018-07-08T04:00:22.911Z,812
2018-07-08T04:01:31.545Z,836
2018-07-08T04:02:40.191Z,860
2018-07-08T04:03:48.831Z,876
2018-07-08T04:04:57.481Z,900
2018-07-08T04:06:06.118Z,916
2018-07-08T04:07:14.764Z,936
2018-07-08T04:08:23.666Z,960
2018-07-08T04:09:32.316Z,980
2018-07-08T04:10:40.956Z,996
2018-07-08T04:11:49.595Z,1016
2018-07-08T04:12:58.235Z,1032
2018-07-08T04:14:06.875Z,1052
2018-07-08T04:15:15.541Z,1068
2018-07-08T04:16:24.167Z,1092
2018-07-08T04:17:32.812Z,1108
2018-07-08T04:18:41.451Z,1128
2018-07-08T04:19:50.099Z,1144
2018-07-08T04:20:58.995Z,1160
2018-07-08T04:22:07.644Z,1176
2018-07-08T04:23:16.278Z,1196
2018-07-08T04:24:24.930Z,1216
2018-07-08T04:25:33.570Z,1236
2018-07-08T04:26:42.205Z,1252
2018-07-08T04:27:50.857Z,1264
2018-07-08T04:28:59.503Z,1280
2018-07-08T04:30:08.143Z,1300
2018-07-08T04:31:16.784Z,1316
2018-07-08T04:32:25.427Z,1332
2018-07-08T04:33:34.078Z,1356
2018-07-08T04:34:42.719Z,1376
2018-07-08T04:35:51.628Z,1400
2018-07-08T04:37:00.262Z,1420
2018-07-08T04:38:08.917Z,1440
2018-07-08T04:39:17.829Z,1464
2018-07-08T04:40:26.478Z,1484
2018-07-08T04:41:35.112Z,1496
2018-07-08T04:42:43.763Z,1504
2018-07-08T04:43:52.401Z,1520
2018-07-08T04:45:01.311Z,1544
2018-07-08T04:46:09.944Z,1568
2018-07-08T04:47:18.592Z,1592
2018-07-08T04:48:27.502Z,1612
2018-07-08T04:49:36.147Z,1632
2018-07-08T04:50:44.793Z,1652
2018-07-08T04:51:53.689Z,1664
2018-07-08T04:53:02.340Z,1676
2018-07-08T04:54:10.981Z,1696
2018-07-08T04:55:19.631Z,1728
2018-07-08T04:56:28.262Z,1760
2018-07-08T04:57:36.910Z,1788
2018-07-08T04:58:45.545Z,1808
2018-07-08T04:59:54.199Z,1840
2018-07-08T05:01:02.878Z,1852
2018-07-08T05:02:11.477Z,1864
2018-07-08T05:03:20.117Z,1880
2018-07-08T05:04:28.773Z,1904
2018-07-08T05:05:37.411Z,1932
2018-07-08T05:06:46.050Z,1948
2018-07-08T05:07:54.694Z,1952
2018-07-08T05:09:03.598Z,1952
2018-07-08T05:10:12.252Z,1952
2018-07-08T05:11:20.891Z,1948
2018-07-08T05:12:29.823Z,1956
2018-07-08T05:13:38.459Z,1956
2018-07-08T05:14:47.112Z,1960
2018-07-08T05:15:55.751Z,1964
2018-07-08T05:17:04.397Z,1964
2018-07-08T05:18:13.031Z,1972
2018-07-08T05:19:21.683Z,1968
2018-07-08T05:20:30.484Z,1980
2018-07-08T05:21:39.232Z,1996
2018-07-08T05:22:47.868Z,1992
2018-07-08T05:23:56.516Z,2020
2018-07-08T05:25:05.165Z,2020
2018-07-08T05:26:14.076Z,2036
2018-07-08T05:27:22.719Z,2024
2018-07-08T05:28:31.358Z,2080
2018-07-08T05:29:40.023Z,2100
2018-07-08T05:30:48.651Z,2132
2018-07-08T05:31:57.572Z,2168
2018-07-08T05:33:06.212Z,2160
2018-07-08T05:34:14.854Z,2152
2018-07-08T05:35:23.495Z,2156
2018-07-08T05:36:32.143Z,2148
2018-07-08T05:37:40.786Z,2168
2018-07-08T05:38:49.431Z,2176
2018-07-08T05:39:58.334Z,2208
2018-07-08T05:41:06.983Z,2208
2018-07-08T05:42:15.627Z,2196
2018-07-08T05:43:24.534Z,2212
2018-07-08T05:44:33.175Z,2236
2018-07-08T05:45:41.822Z,2252
2018-07-08T05:46:50.464Z,2248
2018-07-08T05:47:59.104Z,2280
2018-07-08T05:49:07.748Z,2284
2018-07-08T05:50:16.448Z,2272
2018-07-08T05:51:25.389Z,2288
2018-07-08T05:52:34.033Z,2272
2018-07-08T05:53:42.676Z,2276
2018-07-08T05:54:51.319Z,2284
2018-07-08T05:55:59.969Z,2308
2018-07-08T05:57:08.611Z,2320
2018-07-08T05:58:17.521Z,2312
2018-07-08T05:59:26.160Z,2320
2018-07-08T06:00:34.808Z,2328
2018-07-08T06:01:43.450Z,2324
2018-07-08T06:02:52.102Z,2336
2018-07-08T06:04:00.743Z,2324
2018-07-08T06:05:09.384Z,2320
2018-07-08T06:06:18.030Z,2332
2018-07-08T06:07:26.673Z,2300
2018-07-08T06:08:35.322Z,2324
2018-07-08T06:09:43.963Z,2364
2018-07-08T06:10:52.608Z,2368
2018-07-08T06:12:01.515Z,2336
2018-07-08T06:13:10.165Z,2348
2018-07-08T06:14:18.803Z,2408
2018-07-08T06:15:27.477Z,2404
2018-07-08T06:16:36.099Z,2360
2018-07-08T06:17:44.749Z,2368
2018-07-08T06:18:53.393Z,2396
2018-07-08T06:20:02.040Z,2444
2018-07-08T06:21:10.687Z,2460
2018-07-08T06:22:19.329Z,2444
2018-07-08T06:23:28.247Z,2456
2018-07-08T06:24:37.149Z,2508
2018-07-08T06:25:45.798Z,2568
2018-07-08T06:26:54.433Z,2584
2018-07-08T06:28:03.088Z,2488
2018-07-08T06:29:11.729Z,2556
2018-07-08T06:30:20.655Z,2492
2018-07-08T06:31:29.292Z,2536
2018-07-08T06:32:37.944Z,2492
2018-07-08T06:33:46.856Z,2524
2018-07-08T06:34:55.506Z,2516
2018-07-08T06:36:04.146Z,2516
2018-07-08T06:37:12.795Z,2692
2018-07-08T06:38:21.446Z,2792
2018-07-08T06:39:30.361Z,2924
2018-07-08T06:40:39.011Z,2892
2018-07-08T06:41:47.649Z,3124
2018-07-08T06:42:56.614Z,3220
2018-07-08T06:44:05.255Z,3012
2018-07-08T06:45:13.910Z,3220
2018-07-08T06:46:22.545Z,3152
2018-07-08T06:47:31.195Z,3088
2018-07-08T06:48:39.837Z,3900
2018-07-08T06:49:48.494Z,4720
2018-07-08T06:50:57.130Z,4104
2018-07-08T06:52:05.797Z,2592
2018-07-08T06:53:14.427Z,2840
2018-07-08T06:54:23.346Z,3088
2018-07-08T06:55:31.994Z,2860
2018-07-08T06:56:40.633Z,3624
2018-07-08T06:57:49.321Z,3112
2018-07-08T06:58:57.920Z,3804
2018-07-08T07:00:06.580Z,3720
2018-07-08T07:01:15.220Z,3220
2018-07-08T07:02:23.871Z,2376
2018-07-08T07:03:32.773Z,2344
2018-07-08T07:04:41.427Z,2336
2018-07-08T07:05:50.338Z,2972
2018-07-08T07:06:58.989Z,3064
2018-07-08T07:08:07.630Z,3180
2018-07-08T07:09:16.288Z,3444
2018-07-08T07:10:24.933Z,3800
2018-07-08T07:11:33.585Z,3948
2018-07-08T07:12:42.221Z,3412
2018-07-08T07:13:50.869Z,2676
2018-07-08T07:14:59.521Z,3008
2018-07-08T07:16:08.692Z,2732
2018-07-08T07:17:17.341Z,2616
2018-07-08T07:18:25.975Z,2808
2018-07-08T07:19:34.625Z,2992
2018-07-08T07:20:43.275Z,3196
2018-07-08T07:21:52.190Z,3704
2018-07-08T07:23:00.857Z,4172
2018-07-08T07:24:09.470Z,3892
2018-07-08T07:25:18.117Z,2976
2018-07-08T07:26:26.768Z,2564
2018-07-08T07:27:35.411Z,2712
2018-07-08T07:28:44.061Z,3012
2018-07-08T07:29:52.708Z,2584
2018-07-08T07:31:01.360Z,2424
2018-07-08T07:32:09.998Z,3016
2018-07-08T07:33:18.647Z,2572
2018-07-08T07:34:27.289Z,2600
2018-07-08T07:35:36.196Z,2516
2018-07-08T07:36:45.110Z,2488
2018-07-08T07:37:53.755Z,2464
2018-07-08T07:39:02.409Z,2488
2018-07-08T07:40:11.056Z,2500
2018-07-08T07:41:19.707Z,2492
2018-07-08T07:42:28.354Z,2512
2018-07-08T07:43:37.003Z,2508
2018-07-08T07:44:45.646Z,2532
2018-07-08T07:45:54.297Z,2480
2018-07-08T07:47:02.947Z,2484
2018-07-08T07:48:11.595Z,2484
2018-07-08T07:49:20.236Z,2500
2018-07-08T07:50:28.885Z,2476
2018-07-08T07:51:37.534Z,2468
2018-07-08T07:52:46.718Z,2472
2018-07-08T07:53:55.630Z,2468
2018-07-08T07:55:04.274Z,2472
2018-07-08T07:56:12.922Z,2488
2018-07-08T07:57:21.568Z,2496
2018-07-08T07:58:30.219Z,2460
2018-07-08T07:59:38.864Z,2480
2018-07-08T08:00:47.511Z,2472
2018-07-08T08:01:56.163Z,2480
2018-07-08T08:03:05.081Z,2476
2018-07-08T08:04:13.985Z,2464
2018-07-08T08:05:22.633Z,2452
2018-07-08T08:06:31.279Z,2452
2018-07-08T08:07:39.932Z,2480
2018-07-08T08:08:48.577Z,2472
2018-07-08T08:09:57.236Z,2492
2018-07-08T08:11:06.146Z,2492
2018-07-08T08:12:15.053Z,2508
2018-07-08T08:13:23.703Z,2528
2018-07-08T08:14:32.354Z,2520
2018-07-08T08:15:41.262Z,2496
2018-07-08T08:16:49.905Z,2492
2018-07-08T08:17:58.556Z,2468
2018-07-08T08:19:07.727Z,2460
2018-07-08T08:20:16.373Z,2480
2018-07-08T08:21:25.023Z,2488
2018-07-08T08:22:33.666Z,2500
2018-07-08T08:23:42.315Z,2512
2018-07-08T08:24:50.959Z,2508
2018-07-08T08:25:59.617Z,2508
2018-07-08T08:27:08.528Z,2516
2018-07-08T08:28:17.175Z,2536
2018-07-08T08:29:25.819Z,2548
2018-07-08T08:30:34.464Z,2556
2018-07-08T08:31:43.117Z,2548
2018-07-08T08:32:52.078Z,2544
2018-07-08T08:34:01.073Z,2556
2018-07-08T08:35:09.978Z,2564
2018-07-08T08:36:18.898Z,2568
2018-07-08T08:37:27.546Z,2564
2018-07-08T08:38:36.200Z,2568
2018-07-08T08:39:44.839Z,2548
2018-07-08T08:40:53.758Z,2544
2018-07-08T08:42:02.408Z,2532
2018-07-08T08:43:11.061Z,2532
2018-07-08T08:44:19.703Z,2552
2018-07-08T08:45:28.355Z,2536
2018-07-08T08:46:37.003Z,2528
2018-07-08T08:47:45.923Z,2544
2018-07-08T08:48:54.575Z,2528
2018-07-08T08:50:03.221Z,2516
2018-07-08T08:51:11.869Z,2528
2018-07-08T08:52:20.530Z,2524
2018-07-08T08:53:29.172Z,2532
2018-07-08T08:54:37.816Z,2532
2018-07-08T08:55:46.468Z,2528
2018-07-08T08:56:55.119Z,2528
2018-07-08T08:58:03.775Z,2528
2018-07-08T08:59:12.422Z,2536
2018-07-08T09:00:21.336Z,2536
2018-07-08T09:01:29.980Z,2532
2018-07-08T09:02:38.632Z,2524
2018-07-08T09:03:47.298Z,2540
2018-07-08T09:04:56.214Z,2540
2018-07-08T09:06:04.859Z,2532
2018-07-08T09:07:13.511Z,2536
2018-07-08T09:08:22.164Z,2536
2018-07-08T09:09:30.810Z,2544
2018-07-08T09:10:39.504Z,2536
2018-07-08T09:11:48.364Z,2544
2018-07-08T09:12:57.017Z,2544
2018-07-08T09:14:05.669Z,2548
2018-07-08T09:15:14.317Z,2552
2018-07-08T09:16:22.960Z,2564
2018-07-08T09:17:31.612Z,2560
2018-07-08T09:18:40.518Z,2568
2018-07-08T09:19:49.170Z,2576
2018-07-08T09:20:58.096Z,2580
2018-07-08T09:22:07.004Z,2572
2018-07-08T09:23:15.657Z,2576
2018-07-08T09:24:24.307Z,2588
2018-07-08T09:25:33.013Z,2592
2018-07-08T09:26:41.598Z,2604
2018-07-08T09:27:50.252Z,2612
2018-07-08T09:28:58.894Z,2612
2018-07-08T09:30:07.855Z,2620
2018-07-08T09:31:16.493Z,2624
2018-07-08T09:32:25.147Z,2632
2018-07-08T09:33:33.792Z,2644
2018-07-08T09:34:42.458Z,2656
2018-07-08T09:35:51.103Z,2660
2018-07-08T09:36:59.759Z,2668
2018-07-08T09:38:08.672Z,2676
2018-07-08T09:39:17.451Z,2676
2018-07-08T09:40:26.025Z,2684
2018-07-08T09:41:34.622Z,2684
2018-07-08T09:42:43.268Z,2692
2018-07-08T09:43:51.914Z,2704
2018-07-08T09:45:00.573Z,2716
2018-07-08T09:46:09.486Z,2720
2018-07-08T09:47:18.140Z,2728
2018-07-08T09:48:26.786Z,2744
2018-07-08T09:49:35.445Z,2760
2018-07-08T09:50:44.353Z,2764
2018-07-08T09:51:53.008Z,2776
2018-07-08T09:53:01.649Z,2788
2018-07-08T09:54:10.309Z,2776
2018-07-08T09:55:18.955Z,2788
2018-07-08T09:56:27.608Z,2796
2018-07-08T09:57:36.513Z,2804
2018-07-08T09:58:45.166Z,2812
2018-07-08T09:59:53.819Z,2832
2018-07-08T10:01:02.476Z,2828
2018-07-08T10:02:11.126Z,2836
2018-07-08T10:03:19.770Z,2844
2018-07-08T10:04:28.475Z,2860
2018-07-08T10:05:37.073Z,2872
2018-07-08T10:06:45.733Z,2888
2018-07-08T10:07:54.374Z,2892
2018-07-08T10:09:03.028Z,2912
2018-07-08T10:10:11.672Z,2916
2018-07-08T10:11:20.332Z,2924
2018-07-08T10:12:28.973Z,2928
2018-07-08T10:13:37.636Z,2916
2018-07-08T10:14:46.276Z,2932
2018-07-08T10:15:54.931Z,2940
2018-07-08T10:17:03.581Z,2948
2018-07-08T10:18:12.228Z,2960
2018-07-08T10:19:20.912Z,2972
2018-07-08T10:20:29.992Z,2980
2018-07-08T10:21:38.637Z,3000
2018-07-08T10:22:47.288Z,3012
2018-07-08T10:23:56.203Z,3016
2018-07-08T10:25:04.859Z,3032
2018-07-08T10:26:13.505Z,3032
2018-07-08T10:27:22.156Z,3032
2018-07-08T10:28:30.808Z,3048
2018-07-08T10:29:39.462Z,3040
2018-07-08T10:30:48.109Z,3052
2018-07-08T10:31:56.764Z,3064
2018-07-08T10:33:05.412Z,3072
2018-07-08T10:34:14.070Z,3084
2018-07-08T10:35:22.721Z,3100
2018-07-08T10:36:31.725Z,3104
2018-07-08T10:37:40.618Z,3116
2018-07-08T10:38:49.528Z,3120
2018-07-08T10:39:58.182Z,3136
2018-07-08T10:41:06.835Z,3140
2018-07-08T10:42:15.487Z,3136
2018-07-08T10:43:24.177Z,3136
2018-07-08T10:44:33.177Z,3136
2018-07-08T10:45:41.831Z,3144
2018-07-08T10:46:50.483Z,3124
2018-07-08T10:47:59.128Z,3140
2018-07-08T10:49:08.047Z,3140
2018-07-08T10:50:16.695Z,3144
2018-07-08T10:51:25.349Z,3152
2018-07-08T10:52:34.266Z,3152
2018-07-08T10:53:42.921Z,3168
2018-07-08T10:54:51.567Z,3172
2018-07-08T10:56:00.228Z,3176
2018-07-08T10:57:09.139Z,3176
2018-07-08T10:58:17.784Z,3176
2018-07-08T10:59:26.437Z,3176
2018-07-08T11:00:35.087Z,3172
2018-07-08T11:01:44.072Z,3172
2018-07-08T11:02:52.681Z,3176
2018-07-08T11:04:01.331Z,3180
2018-07-08T11:05:09.992Z,3184
2018-07-08T11:06:18.649Z,3188
2018-07-08T11:07:27.306Z,3192
2018-07-08T11:08:36.758Z,3192
2018-07-08T11:09:45.409Z,3196
2018-07-08T11:10:54.721Z,3204
2018-07-08T11:12:03.368Z,3204
2018-07-08T11:13:12.020Z,3208
2018-07-08T11:14:20.668Z,3208
2018-07-08T11:15:29.317Z,3208
2018-07-08T11:16:37.972Z,3208
2018-07-08T11:17:46.894Z,3216
2018-07-08T11:18:56.075Z,3216
2018-07-08T11:20:04.723Z,3232
2018-07-08T11:21:13.384Z,3232
2018-07-08T11:22:22.032Z,3228
2018-07-08T11:23:30.689Z,3232
2018-07-08T11:24:39.594Z,3228
2018-07-08T11:25:48.253Z,3236
2018-07-08T11:26:56.902Z,3240
2018-07-08T11:28:05.828Z,3240
2018-07-08T11:29:14.471Z,3244
2018-07-08T11:30:23.124Z,3236
2018-07-08T11:31:31.780Z,3252
2018-07-08T11:32:40.429Z,3252
2018-07-08T11:33:49.358Z,3256
2018-07-08T11:34:58.001Z,3260
2018-07-08T11:36:06.658Z,3260
2018-07-08T11:37:15.305Z,3276
2018-07-08T11:38:24.499Z,3252
2018-07-08T11:39:33.407Z,3276
2018-07-08T11:40:42.327Z,3292
2018-07-08T11:41:50.972Z,3288
2018-07-08T11:42:59.731Z,3288
2018-07-08T11:44:08.276Z,3288
2018-07-08T11:45:16.930Z,3284
2018-07-08T11:46:25.579Z,3288
2018-07-08T11:47:34.502Z,3292
2018-07-08T11:48:43.153Z,3288
2018-07-08T11:49:52.345Z,3284
2018-07-08T11:51:01.004Z,3292
2018-07-08T11:52:10.180Z,3276
2018-07-08T11:53:19.105Z,3272
2018-07-08T11:54:27.751Z,3280
2018-07-08T11:55:36.766Z,3276
2018-07-08T11:56:45.405Z,3288
2018-07-08T11:57:54.332Z,3296
2018-07-08T11:59:02.983Z,3300
2018-07-08T12:00:11.637Z,3300
2018-07-08T12:01:20.283Z,3300
2018-07-08T12:02:28.950Z,3312
2018-07-08T12:03:37.598Z,3324
2018-07-08T12:04:46.253Z,3304
2018-07-08T12:05:54.893Z,3312
2018-07-08T12:07:03.547Z,3316
2018-07-08T12:08:12.202Z,3312
2018-07-08T12:09:20.858Z,3312
2018-07-08T12:10:29.774Z,3308
2018-07-08T12:11:38.418Z,3324
2018-07-08T12:12:47.079Z,3304
2018-07-08T12:13:55.722Z,3296
2018-07-08T12:15:04.388Z,3296
2018-07-08T12:16:13.036Z,3296
2018-07-08T12:17:21.948Z,3300
2018-07-08T12:18:30.602Z,3308
2018-07-08T12:19:39.508Z,3304
2018-07-08T12:20:48.168Z,3308
2018-07-08T12:21:56.817Z,3304
2018-07-08T12:23:05.473Z,3308
2018-07-08T12:24:14.114Z,3296
2018-07-08T12:25:22.775Z,3296
2018-07-08T12:26:31.423Z,3316
2018-07-08T12:27:40.183Z,3328
2018-07-08T12:28:48.731Z,3344
2018-07-08T12:29:57.372Z,3328
2018-07-08T12:31:06.031Z,3336
2018-07-08T12:32:14.943Z,3336
2018-07-08T12:33:23.605Z,3344
2018-07-08T12:34:32.248Z,3344
2018-07-08T12:35:40.907Z,3348
2018-07-08T12:36:49.852Z,3352
2018-07-08T12:37:58.784Z,3336
2018-07-08T12:39:07.685Z,3348
2018-07-08T12:40:16.603Z,3348
2018-07-08T12:41:25.516Z,3352
2018-07-08T12:42:34.177Z,3368
2018-07-08T12:43:42.826Z,3372
2018-07-08T12:44:51.571Z,3376
2018-07-08T12:46:00.390Z,3384
2018-07-08T12:47:09.041Z,3400
2018-07-08T12:48:17.700Z,3384
2018-07-08T12:49:26.347Z,3388
2018-07-08T12:50:35.001Z,3412
2018-07-08T12:51:43.645Z,3424
2018-07-08T12:52:52.309Z,3448
2018-07-08T12:54:00.956Z,3416
2018-07-08T12:55:09.609Z,3428
2018-07-08T12:56:18.252Z,3428
2018-07-08T12:57:26.913Z,3412
2018-07-08T12:58:35.607Z,3432
2018-07-08T12:59:44.212Z,3420
2018-07-08T13:00:52.854Z,3416
2018-07-08T13:02:01.505Z,3436
2018-07-08T13:03:10.164Z,3436
2018-07-08T13:04:18.818Z,3436
2018-07-08T13:05:27.470Z,3444
2018-07-08T13:06:36.134Z,3452
2018-07-08T13:07:45.149Z,3436
2018-07-08T13:08:53.758Z,3448
2018-07-08T13:10:02.423Z,3436
2018-07-08T13:11:11.067Z,3440
2018-07-08T13:12:19.725Z,3444
2018-07-08T13:13:28.377Z,3436
2018-07-08T13:14:37.036Z,3460
2018-07-08T13:15:45.686Z,3476
2018-07-08T13:16:54.338Z,3468
2018-07-08T13:18:02.991Z,3468
2018-07-08T13:19:11.648Z,3476
2018-07-08T13:20:20.299Z,3480
2018-07-08T13:21:28.955Z,3464
2018-07-08T13:22:37.609Z,3464
2018-07-08T13:23:46.524Z,3464
2018-07-08T13:24:55.182Z,3480
2018-07-08T13:26:03.840Z,3456
2018-07-08T13:27:12.492Z,3452
2018-07-08T13:28:21.146Z,3452
2018-07-08T13:29:29.798Z,3444
2018-07-08T13:30:38.451Z,3420
2018-07-08T13:31:47.370Z,3444
2018-07-08T13:32:56.017Z,3460
2018-07-08T13:34:04.939Z,3464
2018-07-08T13:35:13.594Z,3476
2018-07-08T13:36:22.769Z,3480
2018-07-08T13:37:31.419Z,3484
2018-07-08T13:38:40.073Z,3520
2018-07-08T13:39:48.990Z,3544
2018-07-08T13:40:57.640Z,3556
2018-07-08T13:42:06.295Z,3484
2018-07-08T13:43:14.941Z,3468
2018-07-08T13:44:23.595Z,3420
2018-07-08T13:45:32.517Z,3416
2018-07-08T13:46:41.175Z,3380
2018-07-08T13:47:49.822Z,3432
2018-07-08T13:48:58.475Z,3420
2018-07-08T13:50:07.127Z,3400
2018-07-08T13:51:15.787Z,3404
2018-07-08T13:52:24.438Z,3356
2018-07-08T13:53:33.094Z,3336
2018-07-08T13:54:42.007Z,3368
2018-07-08T13:55:50.663Z,3344
2018-07-08T13:56:59.312Z,3356
2018-07-08T13:58:07.963Z,3376
2018-07-08T13:59:16.615Z,3416
2018-07-08T14:00:25.263Z,3440
2018-07-08T14:01:33.918Z,3428
2018-07-08T14:02:42.574Z,3400
2018-07-08T14:03:51.232Z,3388
2018-07-08T14:04:59.875Z,3384
2018-07-08T14:06:08.539Z,3376
2018-07-08T14:07:17.715Z,3392
2018-07-08T14:08:26.630Z,3364
2018-07-08T14:09:35.278Z,3328
2018-07-08T14:10:44.203Z,3340
2018-07-08T14:11:52.854Z,3320
2018-07-08T14:13:01.512Z,3300
2018-07-08T14:14:10.161Z,3312
2018-07-08T14:15:18.813Z,3276
2018-07-08T14:16:27.469Z,3248
2018-07-08T14:17:36.125Z,3248
2018-07-08T14:18:44.784Z,3224
2018-07-08T14:19:53.698Z,3196
2018-07-08T14:21:02.355Z,3156
2018-07-08T14:22:11.002Z,3088
2018-07-08T14:23:19.666Z,3084
2018-07-08T14:24:28.307Z,3080
2018-07-08T14:25:37.329Z,3056
2018-07-08T14:26:46.217Z,3036
2018-07-08T14:27:54.878Z,3008
2018-07-08T14:29:03.523Z,2996
2018-07-08T14:30:12.182Z,2976
2018-07-08T14:31:20.832Z,2972
2018-07-08T14:32:29.500Z,2960
2018-07-08T14:33:38.151Z,2916
2018-07-08T14:34:46.825Z,2956
2018-07-08T14:35:56.134Z,2944
2018-07-08T14:37:04.783Z,2860
2018-07-08T14:38:13.444Z,2844
2018-07-08T14:39:22.090Z,2816
2018-07-08T14:40:30.749Z,2804
2018-07-08T14:41:39.391Z,2800
2018-07-08T14:42:48.053Z,2780
2018-07-08T14:43:56.706Z,2792
2018-07-08T14:45:05.363Z,2748
2018-07-08T14:46:14.087Z,2756
2018-07-08T14:47:23.047Z,2752
2018-07-08T14:48:31.696Z,2736
2018-07-08T14:49:40.351Z,2720
2018-07-08T14:50:48.994Z,2704
2018-07-08T14:51:57.648Z,2716
2018-07-08T14:53:06.575Z,2712
2018-07-08T14:54:15.490Z,2704
2018-07-08T14:55:24.144Z,2688
2018-07-08T14:56:33.049Z,2700
2018-07-08T14:57:41.705Z,2688
2018-07-08T14:58:50.351Z,2680
2018-07-08T14:59:59.016Z,2664
2018-07-08T15:01:07.659Z,2644
2018-07-08T15:02:16.317Z,2636
2018-07-08T15:03:24.964Z,2616
2018-07-08T15:04:33.894Z,2600
2018-07-08T15:05:42.535Z,2588
2018-07-08T15:06:51.190Z,2576
2018-07-08T15:07:59.841Z,2564
2018-07-08T15:09:08.501Z,2324
2018-07-08T15:10:17.152Z,2564
2018-07-08T15:11:25.801Z,2544
2018-07-08T15:12:34.451Z,2544
2018-07-08T15:13:43.103Z,2512
2018-07-08T15:14:51.759Z,2520
2018-07-08T15:16:00.627Z,2484
2018-07-08T15:17:09.392Z,2380
2018-07-08T15:18:18.302Z,2488
2018-07-08T15:19:26.957Z,2516
2018-07-08T15:20:35.610Z,2500
2018-07-08T15:21:44.545Z,2512
2018-07-08T15:22:53.450Z,2508
2018-07-08T15:24:02.111Z,2508
2018-07-08T15:25:10.758Z,2468
2018-07-08T15:26:19.680Z,2452
2018-07-08T15:27:28.862Z,2460
2018-07-08T15:28:37.526Z,2460
2018-07-08T15:29:46.190Z,2460
2018-07-08T15:30:54.827Z,2472
2018-07-08T15:32:03.481Z,2476
2018-07-08T15:33:12.144Z,2476
2018-07-08T15:34:20.798Z,2480
2018-07-08T15:35:29.450Z,2452